createdAt,value
2019-03-18T00:02:07.738Z,3.17
2019-03-18T00:04:36.353Z,3.07
2019-03-18T00:07:05.106Z,2.98
2019-03-18T00:09:33.738Z,2.97
2019-03-18T00:12:02.510Z,2.90
2019-03-18T00:14:31.084Z,2.93
2019-03-18T00:16:59.852Z,2.88
2019-03-18T00:19:28.429Z,2.90
2019-03-18T00:21:57.035Z,2.79
2019-03-18T00:24:25.586Z,2.74
2019-03-18T00:26:54.307Z,2.83
2019-03-18T00:29:22.962Z,2.76
2019-03-18T00:31:51.576Z,2.79
2019-03-18T00:34:20.236Z,2.77
2019-03-18T00:36:49.042Z,2.76
2019-03-18T00:39:17.600Z,2.88
2019-03-18T00:41:46.316Z,2.80
2019-03-18T00:44:14.853Z,2.74
2019-03-18T00:46:43.491Z,2.71
2019-03-18T00:49:12.076Z,2.78
2019-03-18T00:51:40.667Z,2.67
2019-03-18T00:54:09.201Z,2.68
2019-03-18T00:56:38.071Z,2.67
2019-03-18T00:59:06.630Z,2.71
2019-03-18T01:01:35.584Z,2.68
2019-03-18T01:04:04.367Z,2.71
2019-03-18T01:06:33.094Z,2.68
2019-03-18T01:09:01.630Z,2.65
2019-03-18T01:11:30.295Z,2.51
2019-03-18T01:13:58.848Z,2.64
2019-03-18T01:16:27.411Z,2.67
2019-03-18T01:18:56.290Z,2.60
2019-03-18T01:21:24.941Z,2.59
2019-03-18T01:23:53.651Z,2.59
2019-03-18T01:26:22.315Z,2.64
2019-03-18T01:28:51.140Z,2.44
2019-03-18T01:31:19.698Z,2.47
2019-03-18T01:33:48.300Z,2.59
2019-03-18T01:36:16.908Z,2.64
2019-03-18T01:38:45.464Z,2.71
2019-03-18T01:41:14.034Z,2.64
2019-03-18T01:43:42.730Z,2.71
2019-03-18T01:46:11.400Z,2.72
2019-03-18T01:48:40.292Z,2.84
2019-03-18T01:51:08.793Z,2.82
2019-03-18T01:53:37.488Z,2.80
2019-03-18T01:56:06.262Z,2.90
2019-03-18T01:58:34.869Z,2.90
2019-03-18T02:01:03.533Z,2.93
2019-03-18T02:03:32.552Z,2.90
2019-03-18T02:06:01.221Z,2.87
2019-03-18T02:08:29.845Z,2.81
2019-03-18T02:10:58.558Z,2.76
2019-03-18T02:13:27.271Z,2.77
2019-03-18T02:15:55.985Z,2.82
2019-03-18T02:18:24.544Z,2.84
2019-03-18T02:20:53.168Z,2.86
2019-03-18T02:23:21.734Z,2.93
2019-03-18T02:25:50.852Z,2.94
2019-03-18T02:28:19.409Z,3.06
2019-03-18T02:30:48.129Z,3.04
2019-03-18T02:33:16.770Z,3.09
2019-03-18T02:35:45.377Z,3.10
2019-03-18T02:38:14.030Z,3.06
2019-03-18T02:40:42.646Z,3.11
2019-03-18T02:43:11.180Z,3.12
2019-03-18T02:45:39.834Z,3.08
2019-03-18T02:48:08.435Z,2.97
2019-03-18T02:50:37.185Z,2.91
2019-03-18T02:53:05.755Z,2.81
2019-03-18T02:55:34.366Z,2.79
2019-03-18T02:58:03.064Z,2.52
2019-03-18T03:00:31.904Z,2.53
2019-03-18T03:03:00.488Z,2.60
2019-03-18T03:05:29.194Z,2.65
2019-03-18T03:07:57.828Z,2.64
2019-03-18T03:10:26.590Z,2.73
2019-03-18T03:12:55.689Z,2.73
2019-03-18T03:15:24.270Z,2.66
2019-03-18T03:17:53.005Z,2.65
2019-03-18T03:20:21.664Z,2.67
2019-03-18T03:22:50.388Z,2.70
2019-03-18T03:25:18.973Z,2.73
2019-03-18T03:27:47.563Z,2.71
2019-03-18T03:30:16.213Z,2.70
2019-03-18T03:32:44.848Z,2.71
2019-03-18T03:35:13.902Z,2.74
2019-03-18T03:37:42.735Z,2.94
2019-03-18T03:40:11.687Z,2.95
2019-03-18T03:42:40.544Z,2.97
2019-03-18T03:45:09.214Z,2.91
2019-03-18T03:47:37.929Z,2.92
2019-03-18T03:50:06.649Z,2.86
2019-03-18T03:52:35.247Z,3.02
2019-03-18T03:55:04.063Z,2.90
2019-03-18T03:57:32.926Z,2.95
2019-03-18T04:00:02.422Z,2.97
2019-03-18T04:02:31.000Z,2.93
2019-03-18T04:04:59.753Z,2.92
2019-03-18T04:07:28.478Z,3.05
2019-03-18T04:09:57.393Z,2.88
2019-03-18T04:12:26.002Z,3.05
2019-03-18T04:14:54.728Z,2.98
2019-03-18T04:17:23.569Z,2.87
2019-03-18T04:19:52.313Z,2.94
2019-03-18T04:22:20.872Z,2.89
2019-03-18T04:24:49.885Z,2.88
2019-03-18T04:27:18.440Z,2.87
2019-03-18T04:29:47.059Z,3.04
2019-03-18T04:32:15.741Z,3.04
2019-03-18T04:34:44.457Z,3.05
2019-03-18T04:37:13.006Z,2.91
2019-03-18T04:39:41.586Z,2.88
2019-03-18T04:42:10.369Z,2.83
2019-03-18T04:44:38.963Z,2.84
2019-03-18T04:47:14.158Z,2.86
2019-03-18T04:49:38.203Z,2.95
2019-03-18T04:52:06.799Z,3.03
2019-03-18T04:54:35.356Z,3.10
2019-03-18T04:57:03.962Z,3.16
2019-03-18T04:59:32.613Z,3.06
2019-03-18T05:02:01.524Z,3.14
2019-03-18T05:04:30.091Z,3.22
2019-03-18T05:06:58.672Z,3.15
2019-03-18T05:09:27.428Z,3.13
2019-03-18T05:11:56.084Z,3.12
2019-03-18T05:14:24.624Z,3.13
2019-03-18T05:16:53.219Z,3.05
2019-03-18T05:19:21.992Z,3.16
2019-03-18T05:21:50.596Z,3.18
2019-03-18T05:24:19.175Z,3.13
2019-03-18T05:26:47.739Z,3.12
2019-03-18T05:29:16.317Z,3.17
2019-03-18T05:31:44.946Z,3.15
2019-03-18T05:34:13.486Z,3.29
2019-03-18T05:36:42.132Z,3.20
2019-03-18T05:39:10.684Z,3.19
2019-03-18T05:41:39.278Z,3.27
2019-03-18T05:44:08.219Z,3.26
2019-03-18T05:46:36.959Z,3.24
2019-03-18T05:49:05.523Z,3.30
2019-03-18T05:51:34.218Z,3.37
2019-03-18T05:54:02.886Z,3.27
2019-03-18T05:56:31.541Z,3.39
2019-03-18T05:59:00.206Z,3.28
2019-03-18T06:01:28.883Z,3.29
2019-03-18T06:03:57.433Z,3.36
2019-03-18T06:06:26.034Z,3.25
2019-03-18T06:08:54.807Z,3.32
2019-03-18T06:11:23.401Z,3.31
2019-03-18T06:13:52.055Z,3.24
2019-03-18T06:16:20.692Z,3.26
2019-03-18T06:18:49.297Z,3.23
2019-03-18T06:21:17.929Z,3.47
2019-03-18T06:23:46.511Z,3.44
2019-03-18T06:26:15.046Z,3.45
2019-03-18T06:28:43.741Z,3.34
2019-03-18T06:31:12.548Z,3.52
2019-03-18T06:33:41.098Z,3.46
2019-03-18T06:36:09.730Z,3.54
2019-03-18T06:38:38.443Z,3.64
2019-03-18T06:41:06.986Z,3.58
2019-03-18T06:43:35.863Z,3.72
2019-03-18T06:46:04.416Z,3.66
2019-03-18T06:48:33.199Z,3.93
2019-03-18T06:51:01.958Z,3.88
2019-03-18T06:53:30.887Z,4.01
2019-03-18T06:55:59.420Z,4.15
2019-03-18T06:58:28.148Z,4.06
2019-03-18T07:00:56.719Z,4.18
2019-03-18T07:03:25.298Z,4.18
2019-03-18T07:05:53.851Z,4.20
2019-03-18T07:08:22.455Z,4.67
2019-03-18T07:10:53.373Z,4.81
2019-03-18T07:13:21.942Z,4.86
2019-03-18T07:15:50.869Z,5.20
2019-03-18T07:18:19.542Z,5.22
2019-03-18T07:20:48.322Z,5.85
2019-03-18T07:23:17.144Z,6.49
2019-03-18T07:25:45.793Z,6.75
2019-03-18T07:28:14.357Z,6.33
2019-03-18T07:30:44.009Z,5.88
2019-03-18T07:33:12.818Z,5.47
2019-03-18T07:35:42.609Z,5.31
2019-03-18T07:38:11.492Z,5.20
2019-03-18T07:40:40.058Z,4.84
2019-03-18T07:43:08.739Z,4.85
2019-03-18T07:45:37.412Z,4.71
2019-03-18T07:48:06.719Z,4.64
2019-03-18T07:50:35.526Z,4.83
2019-03-18T07:53:04.547Z,5.30
2019-03-18T07:55:33.320Z,5.89
2019-03-18T07:58:01.933Z,5.30
2019-03-18T08:00:30.712Z,5.75
2019-03-18T08:02:59.379Z,6.08
2019-03-18T08:05:28.005Z,6.62
2019-03-18T08:07:56.597Z,6.74
2019-03-18T08:10:25.163Z,7.35
2019-03-18T08:12:54.098Z,6.73
2019-03-18T08:15:22.662Z,7.50
2019-03-18T08:17:51.319Z,7.71
2019-03-18T08:20:19.963Z,8.23
2019-03-18T08:22:48.542Z,8.58
2019-03-18T08:25:17.093Z,7.68
2019-03-18T08:27:46.043Z,7.02
2019-03-18T08:30:14.818Z,6.73
2019-03-18T08:32:43.499Z,6.90
2019-03-18T08:35:12.157Z,7.38
2019-03-18T08:37:41.005Z,7.87
2019-03-18T08:40:09.784Z,7.71
2019-03-18T08:42:38.570Z,8.47
2019-03-18T08:45:07.579Z,8.89
2019-03-18T08:47:36.273Z,8.58
2019-03-18T08:50:04.956Z,9.37
2019-03-18T08:52:33.639Z,9.22
2019-03-18T08:55:02.219Z,9.90
2019-03-18T08:57:30.875Z,10.19
2019-03-18T08:59:59.680Z,10.07
2019-03-18T09:02:28.349Z,10.11
2019-03-18T09:04:57.022Z,9.42
2019-03-18T09:07:25.717Z,8.18
2019-03-18T09:09:54.472Z,9.28
2019-03-18T09:12:23.225Z,8.68
2019-03-18T09:14:51.796Z,8.32
2019-03-18T09:17:20.332Z,8.76
2019-03-18T09:19:48.967Z,9.82
2019-03-18T09:22:17.701Z,8.82
2019-03-18T09:24:46.337Z,8.38
2019-03-18T09:27:15.142Z,9.23
2019-03-18T09:29:43.724Z,8.48
2019-03-18T09:32:12.602Z,8.64
2019-03-18T09:34:41.383Z,8.20
2019-03-18T09:37:10.683Z,7.48
2019-03-18T09:39:39.468Z,7.85
2019-03-18T09:42:08.113Z,7.50
2019-03-18T09:44:36.834Z,7.36
2019-03-18T09:47:05.403Z,7.13
2019-03-18T09:49:34.214Z,7.47
2019-03-18T09:52:02.990Z,7.52
2019-03-18T09:54:31.585Z,8.34
2019-03-18T09:57:00.245Z,9.62
2019-03-18T09:59:28.888Z,11.06
2019-03-18T10:01:57.514Z,11.09
2019-03-18T10:04:26.127Z,11.38
2019-03-18T10:06:54.699Z,11.66
2019-03-18T10:09:23.477Z,11.01
2019-03-18T10:11:52.029Z,9.13
2019-03-18T10:14:20.778Z,9.71
2019-03-18T10:16:49.308Z,10.16
2019-03-18T10:19:17.916Z,9.76
2019-03-18T10:21:46.510Z,8.90
2019-03-18T10:24:15.074Z,8.13
2019-03-18T10:26:43.781Z,8.12
2019-03-18T10:29:12.500Z,9.77
2019-03-18T10:31:41.136Z,9.95
2019-03-18T10:34:09.700Z,10.51
2019-03-18T10:36:38.516Z,9.81
2019-03-18T10:39:07.408Z,9.67
2019-03-18T10:41:35.959Z,9.20
2019-03-18T10:44:04.758Z,8.64
2019-03-18T10:46:33.431Z,8.43
2019-03-18T10:49:01.996Z,8.79
2019-03-18T10:51:31.896Z,8.54
2019-03-18T10:54:00.754Z,8.35
2019-03-18T10:56:29.462Z,8.29
2019-03-18T10:58:58.046Z,8.02
2019-03-18T11:01:26.592Z,8.20
2019-03-18T11:03:55.767Z,8.05
2019-03-18T11:06:24.979Z,8.58
2019-03-18T11:08:53.530Z,9.30
2019-03-18T11:11:22.200Z,8.88
2019-03-18T11:13:50.881Z,8.97
2019-03-18T11:16:19.429Z,8.17
2019-03-18T11:18:48.130Z,8.30
2019-03-18T11:21:16.808Z,8.87
2019-03-18T11:23:45.407Z,9.48
2019-03-18T11:26:13.983Z,9.50
2019-03-18T11:28:42.658Z,8.78
2019-03-18T11:31:11.413Z,8.76
2019-03-18T11:33:40.058Z,8.74
2019-03-18T11:36:08.634Z,8.34
2019-03-18T11:38:37.303Z,8.01
2019-03-18T11:41:06.007Z,7.21
2019-03-18T11:43:34.870Z,5.96
2019-03-18T11:46:03.636Z,5.59
2019-03-18T11:48:32.344Z,5.44
2019-03-18T11:51:00.912Z,5.63
2019-03-18T11:53:29.699Z,6.70
2019-03-18T11:55:58.346Z,7.11
2019-03-18T11:58:27.398Z,8.41
2019-03-18T12:00:56.195Z,10.06
2019-03-18T12:03:24.881Z,11.05
2019-03-18T12:05:53.461Z,11.13
2019-03-18T12:08:22.109Z,13.18
2019-03-18T12:10:50.725Z,12.92
2019-03-18T12:13:19.281Z,12.81
2019-03-18T12:15:47.828Z,11.91
2019-03-18T12:18:16.553Z,12.51
2019-03-18T12:20:45.224Z,13.21
2019-03-18T12:23:13.771Z,13.13
2019-03-18T12:25:42.408Z,12.77
2019-03-18T12:28:10.962Z,13.61
2019-03-18T12:30:39.607Z,13.60
2019-03-18T12:33:08.261Z,12.74
2019-03-18T12:35:36.930Z,13.06
2019-03-18T12:38:05.651Z,12.87
2019-03-18T12:40:34.321Z,13.14
2019-03-18T12:43:03.085Z,13.32
2019-03-18T12:45:31.620Z,14.25
2019-03-18T12:48:00.311Z,13.17
2019-03-18T12:50:43.521Z,11.36
2019-03-18T12:52:59.527Z,11.01
2019-03-18T12:55:28.195Z,10.77
2019-03-18T12:57:56.751Z,11.50
2019-03-18T13:00:25.430Z,11.15
2019-03-18T13:02:54.179Z,10.77
2019-03-18T13:05:23.112Z,10.72
2019-03-18T13:07:51.741Z,10.13
2019-03-18T13:10:21.785Z,9.43
2019-03-18T13:12:50.992Z,9.63
2019-03-18T13:15:19.954Z,10.11
2019-03-18T13:17:48.693Z,10.57
2019-03-18T13:20:17.528Z,9.76
2019-03-18T13:22:46.077Z,9.19
2019-03-18T13:25:15.002Z,9.69
2019-03-18T13:27:43.652Z,10.08
2019-03-18T13:30:15.385Z,10.68
2019-03-18T13:32:44.331Z,11.53
2019-03-18T13:35:13.398Z,11.13
2019-03-18T13:37:42.265Z,11.04
2019-03-18T13:40:11.150Z,12.21
2019-03-18T13:42:39.680Z,11.71
2019-03-18T13:45:10.570Z,12.80
2019-03-18T13:47:39.142Z,13.68
2019-03-18T13:50:09.186Z,13.78
2019-03-18T13:52:37.825Z,13.55
2019-03-18T13:55:06.820Z,14.02
2019-03-18T13:57:35.568Z,14.37
2019-03-18T14:00:06.674Z,14.35
2019-03-18T14:02:35.354Z,13.10
2019-03-18T14:05:04.874Z,13.86
2019-03-18T14:07:33.514Z,14.99
2019-03-18T14:10:02.809Z,15.13
2019-03-18T14:12:31.342Z,13.64
2019-03-18T14:14:59.984Z,12.86
2019-03-18T14:17:28.660Z,12.98
2019-03-18T14:19:57.216Z,12.12
2019-03-18T14:22:25.768Z,11.56
2019-03-18T14:24:54.330Z,10.14
2019-03-18T14:27:22.876Z,9.79
2019-03-18T14:29:51.447Z,9.70
2019-03-18T14:32:20.029Z,8.82
2019-03-18T14:34:48.575Z,8.29
2019-03-18T14:37:17.201Z,7.92
2019-03-18T14:39:45.802Z,7.21
2019-03-18T14:42:14.549Z,6.69
2019-03-18T14:44:43.083Z,6.82
2019-03-18T14:47:12.007Z,6.94
2019-03-18T14:49:40.557Z,7.08
2019-03-18T14:52:09.108Z,6.69
2019-03-18T14:54:37.669Z,6.76
2019-03-18T14:57:06.334Z,6.44
2019-03-18T14:59:34.884Z,6.69
2019-03-18T15:02:03.669Z,6.83
2019-03-18T15:04:32.206Z,6.34
2019-03-18T15:07:00.879Z,6.55
2019-03-18T15:09:29.462Z,6.74
2019-03-18T15:11:58.116Z,6.68
2019-03-18T15:14:26.767Z,6.75
2019-03-18T15:16:55.430Z,7.11
2019-03-18T15:19:24.145Z,7.21
2019-03-18T15:21:58.262Z,7.15
2019-03-18T15:24:23.169Z,7.45
2019-03-18T15:26:51.724Z,7.86
2019-03-18T15:29:20.272Z,8.51
2019-03-18T15:31:48.853Z,7.87
2019-03-18T15:34:17.403Z,7.92
2019-03-18T15:36:45.981Z,7.75
2019-03-18T15:39:14.546Z,7.78
2019-03-18T15:41:43.096Z,7.57
2019-03-18T15:44:11.658Z,7.87
2019-03-18T15:46:40.235Z,7.60
2019-03-18T15:49:08.883Z,7.67
2019-03-18T15:51:37.436Z,7.56
2019-03-18T15:54:06.207Z,7.59
2019-03-18T15:56:34.769Z,7.66
2019-03-18T15:59:03.565Z,7.82
2019-03-18T16:01:32.360Z,8.04
2019-03-18T16:04:01.010Z,8.24
2019-03-18T16:06:29.668Z,8.17
2019-03-18T16:08:58.240Z,8.06
2019-03-18T16:11:26.823Z,7.86
2019-03-18T16:13:55.375Z,7.78
2019-03-18T16:16:23.952Z,7.67
2019-03-18T16:18:52.495Z,7.55
2019-03-18T16:21:21.043Z,7.65
2019-03-18T16:23:49.679Z,7.62
2019-03-18T16:26:18.401Z,7.43
2019-03-18T16:28:47.158Z,7.43
2019-03-18T16:31:15.723Z,7.29
2019-03-18T16:33:44.266Z,7.31
2019-03-18T16:36:12.932Z,7.34
2019-03-18T16:38:41.916Z,7.29
2019-03-18T16:41:10.589Z,7.48
2019-03-18T16:43:39.152Z,7.30
2019-03-18T16:46:07.727Z,7.41
2019-03-18T16:48:36.263Z,7.55
2019-03-18T16:51:04.848Z,7.24
2019-03-18T16:53:33.403Z,7.12
2019-03-18T16:56:01.969Z,7.18
2019-03-18T16:58:30.618Z,7.05
2019-03-18T17:00:59.194Z,7.12
2019-03-18T17:03:27.735Z,7.08
2019-03-18T17:05:56.287Z,7.10
2019-03-18T17:08:24.856Z,7.11
2019-03-18T17:10:53.608Z,7.12
2019-03-18T17:13:22.154Z,6.99
2019-03-18T17:15:50.845Z,6.86
2019-03-18T17:18:19.452Z,7.15
2019-03-18T17:20:47.947Z,6.96
2019-03-18T17:23:16.511Z,6.96
2019-03-18T17:25:45.380Z,6.89
2019-03-18T17:28:13.958Z,6.86
2019-03-18T17:30:42.627Z,6.83
2019-03-18T17:33:11.296Z,6.75
2019-03-18T17:35:39.811Z,6.63
2019-03-18T17:38:08.398Z,6.59
2019-03-18T17:40:36.945Z,6.87
2019-03-18T17:43:05.542Z,6.81
2019-03-18T17:45:34.249Z,6.71
2019-03-18T17:48:03.009Z,6.58
2019-03-18T17:50:31.547Z,6.48
2019-03-18T17:53:03.568Z,6.61
2019-03-18T17:55:30.747Z,6.58
2019-03-18T17:57:59.516Z,6.57
2019-03-18T18:00:33.419Z,6.66
2019-03-18T18:03:01.998Z,6.53
2019-03-18T18:05:30.673Z,6.54
2019-03-18T18:07:59.215Z,6.51
2019-03-18T18:10:27.879Z,6.50
2019-03-18T18:12:56.869Z,6.47
2019-03-18T18:15:25.550Z,6.42
2019-03-18T18:17:54.320Z,6.34
2019-03-18T18:20:22.999Z,6.21
2019-03-18T18:22:51.751Z,6.06
2019-03-18T18:25:20.400Z,6.06
2019-03-18T18:27:48.993Z,6.04
2019-03-18T18:30:17.523Z,5.92
2019-03-18T18:32:46.307Z,5.71
2019-03-18T18:35:15.078Z,5.68
2019-03-18T18:37:43.634Z,5.67
2019-03-18T18:40:12.318Z,5.56
2019-03-18T18:42:40.984Z,5.49
2019-03-18T18:45:10.047Z,5.43
2019-03-18T18:47:38.840Z,5.44
2019-03-18T18:50:07.809Z,5.31
2019-03-18T18:52:36.641Z,5.35
2019-03-18T18:55:05.608Z,5.68
2019-03-18T18:57:34.208Z,5.69
2019-03-18T19:00:04.445Z,5.65
2019-03-18T19:02:33.531Z,5.77
2019-03-18T19:05:02.439Z,5.62
2019-03-18T19:07:30.995Z,5.61
2019-03-18T19:09:59.553Z,5.48
2019-03-18T19:12:28.139Z,5.46
2019-03-18T19:14:56.901Z,5.43
2019-03-18T19:17:25.461Z,5.49
2019-03-18T19:19:54.040Z,5.49
2019-03-18T19:22:22.690Z,5.38
2019-03-18T19:24:51.263Z,5.21
2019-03-18T19:27:19.917Z,5.06
2019-03-18T19:29:48.562Z,5.07
2019-03-18T19:32:17.139Z,4.93
2019-03-18T19:34:46.356Z,4.84
2019-03-18T19:37:14.896Z,4.71
2019-03-18T19:39:44.093Z,4.46
2019-03-18T19:42:12.747Z,4.35
2019-03-18T19:44:41.436Z,4.34
2019-03-18T19:47:10.113Z,4.28
2019-03-18T19:49:38.724Z,4.40
2019-03-18T19:52:07.271Z,4.35
2019-03-18T19:54:35.967Z,4.56
2019-03-18T19:57:04.648Z,4.61
2019-03-18T19:59:33.540Z,4.54
2019-03-18T20:02:02.209Z,4.57
2019-03-18T20:04:31.639Z,4.69
2019-03-18T20:07:00.537Z,4.55
2019-03-18T20:09:29.337Z,4.48
2019-03-18T20:11:57.895Z,4.46
2019-03-18T20:14:26.474Z,4.47
2019-03-18T20:16:55.311Z,4.48
2019-03-18T20:19:25.714Z,4.23
2019-03-18T20:21:54.393Z,4.18
2019-03-18T20:24:23.049Z,4.13
2019-03-18T20:26:51.656Z,4.07
2019-03-18T20:29:20.305Z,4.06
2019-03-18T20:31:48.948Z,3.85
2019-03-18T20:34:17.626Z,3.69
2019-03-18T20:36:46.298Z,3.78
2019-03-18T20:39:14.874Z,3.65
2019-03-18T20:41:43.572Z,3.72
2019-03-18T20:44:12.227Z,3.75
2019-03-18T20:46:40.769Z,3.66
2019-03-18T20:49:09.581Z,3.71
2019-03-18T20:51:38.303Z,3.53
2019-03-18T20:54:12.101Z,3.40
2019-03-18T20:56:37.989Z,3.19
2019-03-18T20:59:06.641Z,3.32
2019-03-18T21:01:35.307Z,3.28
2019-03-18T21:04:04.362Z,3.16
2019-03-18T21:06:33.054Z,3.13
2019-03-18T21:09:01.649Z,3.15
2019-03-18T21:11:30.231Z,3.16
2019-03-18T21:13:58.900Z,3.22
2019-03-18T21:16:27.455Z,3.30
2019-03-18T21:18:56.241Z,3.14
2019-03-18T21:21:24.779Z,3.11
2019-03-18T21:23:53.457Z,3.24
2019-03-18T21:26:22.168Z,3.28
2019-03-18T21:28:51.050Z,3.29
2019-03-18T21:31:19.759Z,3.26
2019-03-18T21:33:48.596Z,3.27
2019-03-18T21:36:32.732Z,3.13
2019-03-18T21:38:47.873Z,3.20
2019-03-18T21:41:16.633Z,2.97
2019-03-18T21:43:45.234Z,3.25
2019-03-18T21:46:13.904Z,3.11
2019-03-18T21:48:42.859Z,3.28
2019-03-18T21:51:11.557Z,3.49
2019-03-18T21:53:40.101Z,3.75
2019-03-18T21:56:08.690Z,3.83
2019-03-18T21:58:37.232Z,3.98
2019-03-18T22:01:05.936Z,3.84
2019-03-18T22:03:34.993Z,3.53
2019-03-18T22:06:03.780Z,3.17
2019-03-18T22:08:32.323Z,3.00
2019-03-18T22:11:01.159Z,2.73
2019-03-18T22:13:29.706Z,2.52
2019-03-18T22:15:58.271Z,2.58
2019-03-18T22:18:26.851Z,2.54
2019-03-18T22:20:55.388Z,2.34
2019-03-18T22:23:23.957Z,2.29
2019-03-18T22:25:52.515Z,2.20
2019-03-18T22:28:21.169Z,2.09
2019-03-18T22:30:49.731Z,1.99
2019-03-18T22:33:18.317Z,1.88
2019-03-18T22:35:47.102Z,1.77
2019-03-18T22:38:15.651Z,1.88
2019-03-18T22:40:44.559Z,1.87
2019-03-18T22:43:13.113Z,1.77
2019-03-18T22:45:41.923Z,1.70
2019-03-18T22:48:10.592Z,1.76
2019-03-18T22:50:39.340Z,1.56
2019-03-18T22:53:07.957Z,1.43
2019-03-18T22:55:36.599Z,1.47
2019-03-18T22:58:05.265Z,1.48
2019-03-18T23:00:42.504Z,1.50
2019-03-18T23:03:11.289Z,1.34
2019-03-18T23:05:40.148Z,1.27
2019-03-18T23:08:08.699Z,1.33
2019-03-18T23:10:37.616Z,1.58
2019-03-18T23:13:06.278Z,1.44
2019-03-18T23:15:34.987Z,1.33
2019-03-18T23:18:03.751Z,1.23
2019-03-18T23:20:32.483Z,1.17
2019-03-18T23:23:01.409Z,1.13
2019-03-18T23:25:30.199Z,1.07
2019-03-18T23:27:58.908Z,0.97
2019-03-18T23:30:27.568Z,0.94
2019-03-18T23:32:56.494Z,0.90
2019-03-18T23:35:25.039Z,0.79
2019-03-18T23:37:53.749Z,0.88
2019-03-18T23:40:22.429Z,0.87
2019-03-18T23:42:51.132Z,0.94
2019-03-18T23:45:19.792Z,1.05
2019-03-18T23:47:48.775Z,0.94
2019-03-18T23:50:17.472Z,0.79
2019-03-18T23:52:46.082Z,0.83
2019-03-18T23:55:19.658Z,0.86
2019-03-18T23:57:45.103Z,0.78
